East Point, Florida
Current Conditions -  °F | °C
As of 1:53 AM on Friday 28 Nov 2014 (Local Time) from KAAF Reporting Station
Clear Clear  
Wind Chill: 39°   Ceiling: Unl
Heat Index: 45°   Visibility: 10mi
Dew Point: 32°   Wind: 12mph
Humidity: 60%   Direction: 20°NNE
Pressure: 30.37"   Gusts: NA
Location:  29.8852°N, 84.8748°W
Report Text: KAAF 280653Z AUTO 02010KT 10SM CLR 07/00 A3037 RMK AO2 SLP285 T00720000 TSNO
Loading
Personal Weather Stations






























Interactive Weather Map New forecast layout! Learn more

10-Day Weather Forecast

Advertisements
Track Severe Weather on mobile